Kastav — 9AA6417 — position and weather

sailwx.info

Track history (hours):
 
Tides and Currents Weather Stations Pressure Air Temp Water Temp Dewpoint Dewpoint Depression Visibility Wind Speed Wind Dir Waves Ship Positions

Kastav

Last reported at 2018-Feb-19 21:20 UTC. Time now 2018-Feb-19 21:58 UTC.
Position N 53°26' W 002°60'.

Length 195 m; draft 8 m.

Type: Other ship. MMSI: 238257000.

Date/timePositionNaut miles runAvg speedWind from/ knotsBaromVisibWave heightAir tempDewpointWater temp
2018-Feb-19 21:20N 53°26' W 002°60'0 0.0
2018-Feb-19 20:59N 53°26' W 002°60'0 0.0
2018-Feb-19 20:29N 53°26' W 002°60'0 0.0
2018-Feb-19 19:59N 53°26' W 002°60'0 0.0
2018-Feb-19 19:29N 53°26' W 002°60'0 0.0
2018-Feb-19 18:59N 53°26' W 002°60'0 0.0
2018-Feb-19 18:30N 53°26' W 002°60'0 0.0
2018-Feb-19 17:53N 53°26' W 002°60'0 0.0
2018-Feb-19 17:29N 53°26' W 002°60'0 0.0
2018-Feb-19 16:57N 53°26' W 002°60'0 0.0
2018-Feb-19 16:29N 53°26' W 002°60'0 0.0
2018-Feb-19 15:59N 53°26' W 002°60'0 0.0
2018-Feb-19 15:27N 53°26' W 002°60'0 0.0
2018-Feb-19 14:56N 53°26' W 002°60'0 0.0
2018-Feb-19 14:17N 53°26' W 002°60'0 0.0
2018-Feb-19 14:00N 53°26' W 002°60'0 0.0
2018-Feb-19 13:29N 53°26' W 002°60'0 0.0
2018-Feb-19 12:56N 53°26' W 002°60'0 0.0
2018-Feb-19 12:27N 53°26' W 002°60'0 0.0
2018-Feb-19 11:59N 53°26' W 002°60'0 0.0
2018-Feb-19 11:23N 53°26' W 002°60'0 0.0
2018-Feb-19 10:59N 53°26' W 002°60'0 0.0
2018-Feb-19 10:29N 53°26' W 002°60'0 0.0
2018-Feb-19 09:53N 53°26' W 002°60'0 0.0
2018-Feb-19 09:29N 53°26' W 002°60'0 0.0
2018-Feb-19 08:59N 53°26' W 002°60'0 0.0
2018-Feb-19 08:23N 53°26' W 002°60'0 0.0
2018-Feb-19 07:59N 53°26' W 002°60'0 0.0
2018-Feb-19 07:30N 53°26' W 002°60'0 0.0
2018-Feb-19 06:59N 53°26' W 002°60'0 0.0
2018-Feb-19 06:30N 53°26' W 002°60'0 0.0
2018-Feb-19 05:59N 53°26' W 002°60'0 0.0
2018-Feb-19 05:29N 53°26' W 002°60'0 0.0
2018-Feb-19 04:59N 53°26' W 002°60'0 0.0
2018-Feb-19 04:29N 53°26' W 002°60'0 0.0
2018-Feb-19 04:00N 53°26' W 002°60'0 0.0
2018-Feb-19 03:30N 53°26' W 002°60'0 0.0
2018-Feb-19 02:59N 53°26' W 002°60'0 0.0
2018-Feb-19 02:29N 53°26' W 002°60'0 0.0
2018-Feb-19 01:57N 53°26' W 002°60'0 0.0
2018-Feb-19 01:30N 53°26' W 002°60'0 0.0
2018-Feb-19 00:59N 53°26' W 002°60'0 0.0
2018-Feb-19 00:30N 53°26' W 002°60'0 0.0
2018-Feb-19 00:00N 53°26' W 002°60'0 0.0
2018-Feb-18 23:30N 53°26' W 002°60'0 0.0
2018-Feb-18 22:58N 53°26' W 002°60'0 0.0
2018-Feb-18 22:28N 53°26' W 002°60'0 0.0
2018-Feb-18 21:58N 53°26' W 002°60'0 0.0
2018-Feb-18 21:28N 53°26' W 002°60'0 0.0
2018-Feb-18 20:55N 53°26' W 002°60'0 0.0
2018-Feb-18 20:25N 53°26' W 002°60'0 0.0
2018-Feb-18 19:58N 53°26' W 002°60'0 0.0
2018-Feb-18 19:28N 53°26' W 002°60'0 0.0
2018-Feb-18 18:58N 53°26' W 002°60'0 0.0
2018-Feb-18 18:25N 53°26' W 002°60'0 0.0
2018-Feb-18 17:55N 53°26' W 002°60'0 0.0
2018-Feb-18 17:29N 53°26' W 002°60'0 0.0
2018-Feb-18 16:59N 53°26' W 002°60'0 0.0
2018-Feb-18 16:29N 53°26' W 002°60'0 0.0
2018-Feb-18 15:59N 53°26' W 002°60'0 0.0
2018-Feb-18 15:29N 53°26' W 002°60'0 0.0
2018-Feb-18 14:56N 53°26' W 002°60'0 0.0
2018-Feb-18 14:29N 53°26' W 002°60'0 0.0
2018-Feb-18 13:59N 53°26' W 002°60'0 0.0
2018-Feb-18 13:30N 53°26' W 002°60'0 0.5
2018-Feb-18 13:00N 53°26' W 003°00'0 0.6
2018-Feb-18 12:30N 53°27' W 003°01'0 0.3
2018-Feb-18 12:00N 53°26' W 003°01'0 0.4
2018-Feb-18 11:30N 53°26' W 003°01'1 2.2
2018-Feb-18 11:00N 53°27' W 003°02'3 6.2
2018-Feb-18 10:30N 53°29' W 003°05'5 8.8
2018-Feb-18 09:58N 53°31' W 003°12'4 8.0
2018-Feb-18 09:30N 53°32' W 003°19'2 3.3
2018-Feb-18 09:00N 53°31' W 003°21'2 4.5
2018-Feb-18 08:30N 53°33' W 003°24'1 1.8
2018-Feb-18 08:00N 53°34' W 003°24'0 0.1
2018-Feb-18 07:30N 53°34' W 003°24'0 0.1
2018-Feb-18 07:00N 53°34' W 003°24'0 0.0
2018-Feb-18 06:30N 53°34' W 003°24'0 0.0
2018-Feb-18 06:00N 53°34' W 003°24'0 0.0
2018-Feb-18 05:27N 53°34' W 003°24'0 0.0
2018-Feb-18 05:00N 53°34' W 003°24'0 0.0
2018-Feb-18 04:30N 53°34' W 003°24'0 0.0
2018-Feb-18 04:00N 53°34' W 003°24'0 0.0
2018-Feb-18 03:30N 53°34' W 003°24'0 0.0
2018-Feb-18 03:00N 53°34' W 003°24'0 0.0
2018-Feb-18 02:30N 53°34' W 003°24'0 0.0
2018-Feb-18 02:00N 53°34' W 003°24'0 0.0
2018-Feb-18 01:24N 53°34' W 003°24'0 0.1
2018-Feb-18 01:00N 53°34' W 003°24'0 0.1
2018-Feb-18 00:30N 53°34' W 003°24'0 0.1
2018-Feb-17 23:54N 53°34' W 003°24'0 0.1
2018-Feb-17 23:30N 53°34' W 003°24'0 0.1
2018-Feb-17 23:00N 53°34' W 003°24'0 0.0
2018-Feb-17 22:30N 53°34' W 003°24'0 0.1
2018-Feb-17 22:00N 53°34' W 003°24'0 0.6
2018-Feb-17 21:30N 53°34' W 003°23'1 2.6
2018-Feb-17 21:00N 53°33' W 003°21'1 1.6
2018-Feb-17 20:30N 53°33' W 003°20'1 1.6
2018-Feb-17 20:00N 53°32' W 003°20'3 4.8
2018-Feb-17 19:29N 53°33' W 003°24'1 2.3
2018-Feb-17 19:00N 53°33' W 003°22'3 6.2
2018-Feb-17 18:31N 53°31' W 003°25'2 3.0
2018-Feb-17 18:00N 53°29' W 003°27'0 0.1
2018-Feb-17 17:30N 53°29' W 003°27'0 0.0
2018-Feb-17 17:00N 53°29' W 003°27'0 0.0
2018-Feb-17 16:30N 53°29' W 003°27'0 0.0
2018-Feb-17 16:00N 53°29' W 003°27'0 0.0
2018-Feb-17 15:30N 53°29' W 003°27'0 0.0
2018-Feb-17 15:00N 53°29' W 003°27'0 0.0
2018-Feb-17 14:30N 53°29' W 003°27'0 0.0
2018-Feb-17 14:00N 53°29' W 003°27'0 0.0
2018-Feb-17 13:30N 53°29' W 003°27'0 0.2
2018-Feb-17 13:00N 53°29' W 003°27'0 0.2
2018-Feb-17 12:30N 53°29' W 003°27'0 0.0
2018-Feb-17 12:00N 53°29' W 003°27'0 0.2
2018-Feb-17 11:30N 53°29' W 003°27'0 0.6
2018-Feb-17 11:00N 53°30' W 003°27'2 5.0
2018-Feb-17 10:30N 53°30' W 003°31'611.8
2018-Feb-17 10:00N 53°30' W 003°41'815.8
2018-Feb-17 09:30N 53°30' W 003°54'18612.3
2018-Feb-16 18:26N 50°39' W 005°51'914.1
2018-Feb-16 17:49N 50°30' W 005°51'63 9.8
2018-Feb-16 11:20N 49°55' W 004°29'913.9
2018-Feb-16 10:40N 49°56' W 004°15'1413.4
2018-Feb-16 09:37N 49°57' W 003°53'412.9
2018-Feb-16 09:16N 49°57' W 003°46'312.4
2018-Feb-16 09:00N 49°58' W 003°40'612.1
2018-Feb-16 08:30N 49°58' W 003°31'611.6
2018-Feb-16 08:01N 49°59' W 003°22'611.3
2018-Feb-16 07:30N 49°60' W 003°13'611.1
2018-Feb-16 07:00N 50°00' W 003°05'611.0
2018-Feb-16 06:27N 50°01' W 002°56'711.3
2018-Feb-16 05:50N 50°03' W 002°45'4313.9
2018-Feb-16 02:43N 50°14' W 001°40'415.9
2018-Feb-16 02:29N 50°15' W 001°34'4614.6
2018-Feb-15 23:18N 50°28' W 000°24'412.6
2018-Feb-15 23:00N 50°29' W 000°19'612.0
2018-Feb-15 22:30N 50°31' W 000°10'611.5
2018-Feb-15 22:00N 50°32' W 000°01'511.0
2018-Feb-15 21:30N 50°34' E 000°07'610.8
2018-Feb-15 20:59N 50°35' E 000°16'510.8
2018-Feb-15 20:29N 50°37' E 000°24'511.3
2018-Feb-15 20:00N 50°38' E 000°32'612.2
2018-Feb-15 19:30N 50°41' E 000°40'613.0
2018-Feb-15 19:00N 50°45' E 000°49'713.8
2018-Feb-15 18:30N 50°49' E 000°58'714.4
2018-Feb-15 18:00N 50°54' E 001°06'714.4
2018-Feb-15 17:30N 50°59' E 001°15'714.3
2018-Feb-15 17:00N 51°03' E 001°24'713.8
2018-Feb-15 16:30N 51°07' E 001°33'612.9
2018-Feb-15 16:01N 51°11' E 001°41'612.3
2018-Feb-15 15:30N 51°16' E 001°47'612.0
2018-Feb-15 15:01N 51°21' E 001°52'611.2
2018-Feb-15 14:30N 51°26' E 001°56'611.1
2018-Feb-15 14:00N 51°30' E 002°02'611.2
2018-Feb-15 13:30N 51°34' E 002°08'611.2
2018-Feb-15 13:00N 51°39' E 002°13'611.4
2018-Feb-15 12:29N 51°43' E 002°21'611.7
2018-Feb-15 11:56N 51°47' E 002°28'4712.5
2018-Feb-15 08:11N 52°03' E 003°39'313.5
2018-Feb-15 08:00N 52°03' E 003°43'612.5
2018-Feb-15 07:30N 52°03' E 003°53'4 9.0
2018-Feb-15 07:01N 52°01' E 003°60'611.6
2018-Feb-15 06:31N 51°58' E 004°08'611.8
2018-Feb-15 06:00N 51°54' E 004°16'3 6.2
2018-Feb-15 05:30N 51°54' E 004°20'0 0.0
2018-Feb-15 05:01N 51°54' E 004°20'0 0.0
2018-Feb-15 04:30N 51°54' E 004°20'0 0.0
2018-Feb-15 04:00N 51°54' E 004°20'0 0.0
2018-Feb-15 03:30N 51°54' E 004°20'0 0.0
2018-Feb-15 03:00N 51°54' E 004°20'0 0.0
2018-Feb-15 02:30N 51°54' E 004°20'0 0.0
2018-Feb-15 02:00N 51°54' E 004°20'0 0.0
2018-Feb-15 01:30N 51°54' E 004°20'0 0.0
2018-Feb-15 00:54N 51°54' E 004°20'0 0.0
2018-Feb-15 00:25N 51°54' E 004°20'0 0.0
2018-Feb-15 00:00N 51°54' E 004°20'0 0.0
2018-Feb-14 23:30N 51°54' E 004°20'0 0.0
2018-Feb-14 22:55N 51°54' E 004°20'0 0.0
2018-Feb-14 22:30N 51°54' E 004°20'0 0.0
2018-Feb-14 21:13N 51°54' E 004°20'0 0.0
2018-Feb-14 20:49N 51°54' E 004°20'0 0.0
2018-Feb-14 20:30N 51°54' E 004°20'0 0.0
2018-Feb-14 20:00N 51°54' E 004°20'0 0.0
2018-Feb-14 19:30N 51°54' E 004°20'0 0.0
2018-Feb-14 18:54N 51°54' E 004°20'0 0.0
2018-Feb-14 18:30N 51°54' E 004°20'0 0.0
2018-Feb-14 17:54N 51°54' E 004°20'0 0.0
2018-Feb-14 17:25N 51°54' E 004°20'0 0.0
2018-Feb-14 15:36N 51°54' E 004°20'0 0.0
2018-Feb-14 15:07N 51°54' E 004°20'0 0.0
2018-Feb-14 14:55N 51°54' E 004°20'0 0.0
2018-Feb-14 08:37N 51°54' E 004°20'0 0.0
2018-Feb-14 08:25N 51°54' E 004°20'0 0.0
2018-Feb-14 07:12N 51°54' E 004°20'0 0.0
2018-Feb-14 06:06N 51°54' E 004°20'0 0.0
2018-Feb-14 06:00N 51°54' E 004°20'0 0.0
2018-Feb-14 04:30N 51°54' E 004°20'0 0.0
2018-Feb-14 03:54N 51°54' E 004°20'0 0.0
2018-Feb-14 03:30N 51°54' E 004°20'0 0.0
2018-Feb-14 02:48N 51°54' E 004°20'0 0.0
2018-Feb-14 02:30N 51°54' E 004°20'0 0.0
2018-Feb-14 01:42N 51°54' E 004°20'0 0.0
2018-Feb-14 01:18N 51°54' E 004°20'0 0.0
2018-Feb-14 00:48N 51°54' E 004°20'0 0.0
2018-Feb-14 00:30N 51°54' E 004°20'0 0.0
2018-Feb-14 00:00N 51°54' E 004°20'0 0.0
2018-Feb-13 22:48N 51°54' E 004°20'0 0.0
2018-Feb-13 22:24N 51°54' E 004°20'0 0.0
2018-Feb-13 22:00N 51°54' E 004°20'0 0.0
2018-Feb-13 20:24N 51°54' E 004°20'0 0.0
2018-Feb-13 20:00N 51°54' E 004°20'0 0.0
2018-Feb-13 19:30N 51°54' E 004°20'0 0.0
2018-Feb-13 14:00N 51°54' E 004°20'0 0.0
2018-Feb-13 10:36N 51°54' E 004°20'0 0.0
2018-Feb-13 02:48N 51°54' E 004°20'0 0.0
2018-Feb-13 02:22N 51°54' E 004°20'0 0.0
2018-Feb-12 12:49N 51°54' E 004°20'0 0.0
2018-Feb-12 12:18N 51°54' E 004°20'0 0.0
2018-Feb-12 12:00N 51°54' E 004°20'0 0.0
2018-Feb-12 11:24N 51°54' E 004°20'0 0.0
2018-Feb-12 10:54N 51°54' E 004°20'0 0.0
2018-Feb-12 10:30N 51°54' E 004°20'0 0.0
2018-Feb-12 10:00N 51°54' E 004°20'0 0.0
2018-Feb-12 09:24N 51°54' E 004°20'0 0.0
2018-Feb-12 09:00N 51°54' E 004°20'0 0.0
2018-Feb-12 08:28N 51°54' E 004°20'0 0.0
2018-Feb-12 08:00N 51°54' E 004°20'0 0.0
2018-Feb-12 07:30N 51°54' E 004°20'0 0.0
2018-Feb-12 07:00N 51°54' E 004°20'0 0.0
2018-Feb-12 06:30N 51°54' E 004°20'0 0.0
2018-Feb-12 05:58N 51°54' E 004°20'0 0.0
2018-Feb-12 05:28N 51°54' E 004°20'0 0.0
2018-Feb-12 04:58N 51°54' E 004°20'0 0.0
2018-Feb-12 04:28N 51°54' E 004°20'0 0.0
2018-Feb-12 03:55N 51°54' E 004°20'0 0.0
2018-Feb-12 03:28N 51°54' E 004°20'0 0.0
2018-Feb-12 02:58N 51°54' E 004°20'0 0.0
2018-Feb-12 02:28N 51°54' E 004°20'0 0.0
2018-Feb-12 01:58N 51°54' E 004°20'0 0.0
2018-Feb-12 01:28N 51°54' E 004°20'0 0.0
2018-Feb-12 00:58N 51°54' E 004°20'0 0.0
2018-Feb-12 00:19N 51°54' E 004°20'0 0.0
2018-Feb-11 23:58N 51°54' E 004°20'0 0.0
2018-Feb-11 23:28N 51°54' E 004°20'0 0.0
2018-Feb-11 22:58N 51°54' E 004°20'0 0.0
2018-Feb-11 22:28N 51°54' E 004°20'0 0.0
2018-Feb-11 21:58N 51°54' E 004°20'0 0.0
2018-Feb-11 21:26N 51°54' E 004°20'0 0.1
2018-Feb-11 21:01N 51°54' E 004°21'1 2.7
2018-Feb-11 20:31N 51°53' E 004°18'1 2.0
2018-Feb-11 20:01N 51°53' E 004°17'0 0.1
2018-Feb-11 19:31N 51°53' E 004°17'0 0.0
2018-Feb-11 18:59N 51°53' E 004°17'0 0.0
2018-Feb-11 18:29N 51°53' E 004°17'0 0.0
2018-Feb-11 17:59N 51°53' E 004°17'0 0.0
2018-Feb-11 17:29N 51°53' E 004°17'0 0.0
2018-Feb-11 16:59N 51°53' E 004°17'0 0.0
2018-Feb-11 16:29N 51°53' E 004°17'0 0.0
2018-Feb-11 15:59N 51°53' E 004°17'0 0.0
2018-Feb-11 15:29N 51°53' E 004°17'0 0.0
2018-Feb-11 14:57N 51°53' E 004°17'0 0.0
2018-Feb-11 14:29N 51°53' E 004°17'0 0.0
2018-Feb-11 13:59N 51°53' E 004°17'0 0.0
2018-Feb-11 13:27N 51°53' E 004°17'0 0.0
2018-Feb-11 12:59N 51°53' E 004°17'0 0.0
2018-Feb-11 12:29N 51°53' E 004°17'0 0.0
2018-Feb-11 11:59N 51°53' E 004°17'0 0.0
2018-Feb-11 11:29N 51°53' E 004°17'0 0.0
2018-Feb-11 10:59N 51°53' E 004°17'0 0.0
2018-Feb-11 10:29N 51°53' E 004°17'0 0.0
2018-Feb-11 09:59N 51°53' E 004°17'0 0.0
2018-Feb-11 09:29N 51°53' E 004°17'0 0.0
2018-Feb-11 08:59N 51°53' E 004°17'0 0.0
2018-Feb-11 08:29N 51°53' E 004°17'0 0.0
2018-Feb-11 07:59N 51°53' E 004°17'0 0.0
2018-Feb-11 07:29N 51°53' E 004°17'0 0.0
2018-Feb-11 06:59N 51°53' E 004°17'0 0.0
2018-Feb-11 06:29N 51°53' E 004°17'0 0.0
2018-Feb-11 05:59N 51°53' E 004°17'0 0.0
2018-Feb-11 05:29N 51°53' E 004°17'0 0.0
2018-Feb-11 04:59N 51°53' E 004°17'0 0.0
2018-Feb-11 04:29N 51°53' E 004°17'0 0.0
2018-Feb-11 03:59N 51°53' E 004°17'0 0.0
2018-Feb-11 03:29N 51°53' E 004°17'0 0.0
2018-Feb-11 02:59N 51°53' E 004°17'0 0.0
2018-Feb-11 02:27N 51°53' E 004°17'0 0.0
2018-Feb-11 01:59N 51°53' E 004°17'0 0.0
2018-Feb-11 01:29N 51°53' E 004°17'0 0.0
2018-Feb-11 00:59N 51°53' E 004°17'0 0.0
2018-Feb-11 00:30N 51°53' E 004°17'0 0.0
2018-Feb-11 00:00N 51°53' E 004°17'0 0.0
2018-Feb-10 23:30N 51°53' E 004°17'0 0.0
2018-Feb-10 23:00N 51°53' E 004°17'0 0.0
2018-Feb-10 22:30N 51°53' E 004°17'0 0.0
2018-Feb-10 22:00N 51°53' E 004°17'0 0.0
2018-Feb-10 21:27N 51°53' E 004°17'0 0.0
2018-Feb-10 21:00N 51°53' E 004°17'0 0.0
2018-Feb-10 20:30N 51°53' E 004°17'0 0.0
2018-Feb-10 20:00N 51°53' E 004°17'0 0.0
2018-Feb-10 19:30N 51°53' E 004°17'0 0.0
2018-Feb-10 19:00N 51°53' E 004°17'0 0.0
2018-Feb-10 18:30N 51°53' E 004°17'0 0.0
2018-Feb-10 18:00N 51°53' E 004°17'0 0.0
2018-Feb-10 17:30N 51°53' E 004°17'0 0.0
2018-Feb-10 17:00N 51°53' E 004°17'0 0.0
2018-Feb-10 16:30N 51°53' E 004°17'0 0.0
2018-Feb-10 16:00N 51°53' E 004°17'0 0.0
2018-Feb-10 15:30N 51°53' E 004°17'0 0.0
2018-Feb-10 15:00N 51°53' E 004°17'0 0.0
2018-Feb-10 14:30N 51°53' E 004°17'0 0.0
2018-Feb-10 14:00N 51°53' E 004°17'0 0.0
2018-Feb-10 13:30N 51°53' E 004°17'0 0.0
2018-Feb-10 13:00N 51°53' E 004°17'0 0.0
2018-Feb-10 12:30N 51°53' E 004°17'0 0.0
2018-Feb-10 12:00N 51°53' E 004°17'0 0.0
2018-Feb-10 11:30N 51°53' E 004°17'0 0.0
2018-Feb-10 11:00N 51°53' E 004°17'0 0.0
2018-Feb-10 10:30N 51°53' E 004°17'0 0.0
2018-Feb-10 10:00N 51°53' E 004°17'0 0.0
2018-Feb-10 09:30N 51°53' E 004°17'0 0.0
2018-Feb-10 09:00N 51°53' E 004°17'0 0.0
2018-Feb-10 08:30N 51°53' E 004°17'0 0.0
2018-Feb-10 08:00N 51°53' E 004°17'0 0.0
2018-Feb-10 07:30N 51°53' E 004°17'0 0.0
2018-Feb-10 07:00N 51°53' E 004°17'0 0.0
2018-Feb-10 06:30N 51°53' E 004°17'0 0.0
2018-Feb-10 06:00N 51°53' E 004°17'0 0.0
2018-Feb-10 05:30N 51°53' E 004°17'0 0.0
2018-Feb-10 05:00N 51°53' E 004°17'0 0.0
2018-Feb-10 04:30N 51°53' E 004°17'0 0.0
2018-Feb-10 04:00N 51°53' E 004°17'0 0.0
2018-Feb-10 03:30N 51°53' E 004°17'0 0.0
2018-Feb-10 03:00N 51°53' E 004°17'0 0.0
2018-Feb-10 02:30N 51°53' E 004°17'0 0.0
2018-Feb-10 02:00N 51°53' E 004°17'0 0.0
2018-Feb-10 01:30N 51°53' E 004°17'0 0.0
2018-Feb-10 01:00N 51°53' E 004°17'0 0.0
2018-Feb-10 00:30N 51°53' E 004°17'0 0.0
2018-Feb-10 00:00N 51°53' E 004°17'0 0.0
2018-Feb-09 23:30N 51°53' E 004°17'0 0.0
2018-Feb-09 23:00N 51°53' E 004°17'0 0.2
2018-Feb-09 22:46N 51°53' E 004°17'  
Track history (hours):
 
Tides and Currents Weather Stations Pressure Air Temp Water Temp Dewpoint Dewpoint Depression Visibility Wind Speed Wind Dir Waves Ship Positions

Kastav

Last reported at 2018-Feb-19 21:20 UTC. Time now 2018-Feb-19 21:58 UTC.
Position N 53°26' W 002°60'.

Length 195 m; draft 8 m.

Type: Other ship. MMSI: 238257000.

Date/timePositionNaut miles runAvg speedWind from/ knotsBaromVisibWave heightAir tempDewpointWater temp
2018-Feb-19 21:20N 53°26' W 002°60'0 0.0
2018-Feb-19 20:59N 53°26' W 002°60'0 0.0
2018-Feb-19 20:29N 53°26' W 002°60'0 0.0
2018-Feb-19 19:59N 53°26' W 002°60'0 0.0
2018-Feb-19 19:29N 53°26' W 002°60'0 0.0
2018-Feb-19 18:59N 53°26' W 002°60'0 0.0
2018-Feb-19 18:30N 53°26' W 002°60'0 0.0
2018-Feb-19 17:53N 53°26' W 002°60'0 0.0
2018-Feb-19 17:29N 53°26' W 002°60'0 0.0
2018-Feb-19 16:57N 53°26' W 002°60'0 0.0
2018-Feb-19 16:29N 53°26' W 002°60'0 0.0
2018-Feb-19 15:59N 53°26' W 002°60'0 0.0
2018-Feb-19 15:27N 53°26' W 002°60'0 0.0
2018-Feb-19 14:56N 53°26' W 002°60'0 0.0
2018-Feb-19 14:17N 53°26' W 002°60'0 0.0
2018-Feb-19 14:00N 53°26' W 002°60'0 0.0
2018-Feb-19 13:29N 53°26' W 002°60'0 0.0
2018-Feb-19 12:56N 53°26' W 002°60'0 0.0
2018-Feb-19 12:27N 53°26' W 002°60'0 0.0
2018-Feb-19 11:59N 53°26' W 002°60'0 0.0
2018-Feb-19 11:23N 53°26' W 002°60'0 0.0
2018-Feb-19 10:59N 53°26' W 002°60'0 0.0
2018-Feb-19 10:29N 53°26' W 002°60'0 0.0
2018-Feb-19 09:53N 53°26' W 002°60'0 0.0
2018-Feb-19 09:29N 53°26' W 002°60'0 0.0
2018-Feb-19 08:59N 53°26' W 002°60'0 0.0
2018-Feb-19 08:23N 53°26' W 002°60'0 0.0
2018-Feb-19 07:59N 53°26' W 002°60'0 0.0
2018-Feb-19 07:30N 53°26' W 002°60'0 0.0
2018-Feb-19 06:59N 53°26' W 002°60'0 0.0
2018-Feb-19 06:30N 53°26' W 002°60'0 0.0
2018-Feb-19 05:59N 53°26' W 002°60'0 0.0
2018-Feb-19 05:29N 53°26' W 002°60'0 0.0
2018-Feb-19 04:59N 53°26' W 002°60'0 0.0
2018-Feb-19 04:29N 53°26' W 002°60'0 0.0
2018-Feb-19 04:00N 53°26' W 002°60'0 0.0
2018-Feb-19 03:30N 53°26' W 002°60'0 0.0
2018-Feb-19 02:59N 53°26' W 002°60'0 0.0
2018-Feb-19 02:29N 53°26' W 002°60'0 0.0
2018-Feb-19 01:57N 53°26' W 002°60'0 0.0
2018-Feb-19 01:30N 53°26' W 002°60'0 0.0
2018-Feb-19 00:59N 53°26' W 002°60'0 0.0
2018-Feb-19 00:30N 53°26' W 002°60'0 0.0
2018-Feb-19 00:00N 53°26' W 002°60'0 0.0
2018-Feb-18 23:30N 53°26' W 002°60'0 0.0
2018-Feb-18 22:58N 53°26' W 002°60'0 0.0
2018-Feb-18 22:28N 53°26' W 002°60'0 0.0
2018-Feb-18 21:58N 53°26' W 002°60'0 0.0
2018-Feb-18 21:28N 53°26' W 002°60'0 0.0
2018-Feb-18 20:55N 53°26' W 002°60'0 0.0
2018-Feb-18 20:25N 53°26' W 002°60'0 0.0
2018-Feb-18 19:58N 53°26' W 002°60'0 0.0
2018-Feb-18 19:28N 53°26' W 002°60'0 0.0
2018-Feb-18 18:58N 53°26' W 002°60'0 0.0
2018-Feb-18 18:25N 53°26' W 002°60'0 0.0
2018-Feb-18 17:55N 53°26' W 002°60'0 0.0
2018-Feb-18 17:29N 53°26' W 002°60'0 0.0
2018-Feb-18 16:59N 53°26' W 002°60'0 0.0
2018-Feb-18 16:29N 53°26' W 002°60'0 0.0
2018-Feb-18 15:59N 53°26' W 002°60'0 0.0
2018-Feb-18 15:29N 53°26' W 002°60'0 0.0
2018-Feb-18 14:56N 53°26' W 002°60'0 0.0
2018-Feb-18 14:29N 53°26' W 002°60'0 0.0
2018-Feb-18 13:59N 53°26' W 002°60'0 0.0
2018-Feb-18 13:30N 53°26' W 002°60'0 0.5
2018-Feb-18 13:00N 53°26' W 003°00'0 0.6
2018-Feb-18 12:30N 53°27' W 003°01'0 0.3
2018-Feb-18 12:00N 53°26' W 003°01'0 0.4
2018-Feb-18 11:30N 53°26' W 003°01'1 2.2
2018-Feb-18 11:00N 53°27' W 003°02'3 6.2
2018-Feb-18 10:30N 53°29' W 003°05'5 8.8
2018-Feb-18 09:58N 53°31' W 003°12'4 8.0
2018-Feb-18 09:30N 53°32' W 003°19'2 3.3
2018-Feb-18 09:00N 53°31' W 003°21'2 4.5
2018-Feb-18 08:30N 53°33' W 003°24'1 1.8
2018-Feb-18 08:00N 53°34' W 003°24'0 0.1
2018-Feb-18 07:30N 53°34' W 003°24'0 0.1
2018-Feb-18 07:00N 53°34' W 003°24'0 0.0
2018-Feb-18 06:30N 53°34' W 003°24'0 0.0
2018-Feb-18 06:00N 53°34' W 003°24'0 0.0
2018-Feb-18 05:27N 53°34' W 003°24'0 0.0
2018-Feb-18 05:00N 53°34' W 003°24'0 0.0
2018-Feb-18 04:30N 53°34' W 003°24'0 0.0
2018-Feb-18 04:00N 53°34' W 003°24'0 0.0
2018-Feb-18 03:30N 53°34' W 003°24'0 0.0
2018-Feb-18 03:00N 53°34' W 003°24'0 0.0
2018-Feb-18 02:30N 53°34' W 003°24'0 0.0
2018-Feb-18 02:00N 53°34' W 003°24'0 0.0
2018-Feb-18 01:24N 53°34' W 003°24'0 0.1
2018-Feb-18 01:00N 53°34' W 003°24'0 0.1
2018-Feb-18 00:30N 53°34' W 003°24'0 0.1
2018-Feb-17 23:54N 53°34' W 003°24'0 0.1
2018-Feb-17 23:30N 53°34' W 003°24'0 0.1
2018-Feb-17 23:00N 53°34' W 003°24'0 0.0
2018-Feb-17 22:30N 53°34' W 003°24'0 0.1
2018-Feb-17 22:00N 53°34' W 003°24'0 0.6
2018-Feb-17 21:30N 53°34' W 003°23'1 2.6
2018-Feb-17 21:00N 53°33' W 003°21'1 1.6
2018-Feb-17 20:30N 53°33' W 003°20'1 1.6
2018-Feb-17 20:00N 53°32' W 003°20'3 4.8
2018-Feb-17 19:29N 53°33' W 003°24'1 2.3
2018-Feb-17 19:00N 53°33' W 003°22'3 6.2
2018-Feb-17 18:31N 53°31' W 003°25'2 3.0
2018-Feb-17 18:00N 53°29' W 003°27'0 0.1
2018-Feb-17 17:30N 53°29' W 003°27'0 0.0
2018-Feb-17 17:00N 53°29' W 003°27'0 0.0
2018-Feb-17 16:30N 53°29' W 003°27'0 0.0
2018-Feb-17 16:00N 53°29' W 003°27'0 0.0
2018-Feb-17 15:30N 53°29' W 003°27'0 0.0
2018-Feb-17 15:00N 53°29' W 003°27'0 0.0
2018-Feb-17 14:30N 53°29' W 003°27'0 0.0
2018-Feb-17 14:00N 53°29' W 003°27'0 0.0
2018-Feb-17 13:30N 53°29' W 003°27'0 0.2
2018-Feb-17 13:00N 53°29' W 003°27'0 0.2
2018-Feb-17 12:30N 53°29' W 003°27'0 0.0
2018-Feb-17 12:00N 53°29' W 003°27'0 0.2
2018-Feb-17 11:30N 53°29' W 003°27'0 0.6
2018-Feb-17 11:00N 53°30' W 003°27'2 5.0
2018-Feb-17 10:30N 53°30' W 003°31'611.8
2018-Feb-17 10:00N 53°30' W 003°41'815.8
2018-Feb-17 09:30N 53°30' W 003°54'18612.3
2018-Feb-16 18:26N 50°39' W 005°51'914.1
2018-Feb-16 17:49N 50°30' W 005°51'63 9.8
2018-Feb-16 11:20N 49°55' W 004°29'913.9
2018-Feb-16 10:40N 49°56' W 004°15'1413.4
2018-Feb-16 09:37N 49°57' W 003°53'412.9
2018-Feb-16 09:16N 49°57' W 003°46'312.4
2018-Feb-16 09:00N 49°58' W 003°40'612.1
2018-Feb-16 08:30N 49°58' W 003°31'611.6
2018-Feb-16 08:01N 49°59' W 003°22'611.3
2018-Feb-16 07:30N 49°60' W 003°13'611.1
2018-Feb-16 07:00N 50°00' W 003°05'611.0
2018-Feb-16 06:27N 50°01' W 002°56'711.3
2018-Feb-16 05:50N 50°03' W 002°45'4313.9
2018-Feb-16 02:43N 50°14' W 001°40'415.9
2018-Feb-16 02:29N 50°15' W 001°34'4614.6
2018-Feb-15 23:18N 50°28' W 000°24'412.6
2018-Feb-15 23:00N 50°29' W 000°19'612.0
2018-Feb-15 22:30N 50°31' W 000°10'611.5
2018-Feb-15 22:00N 50°32' W 000°01'511.0
2018-Feb-15 21:30N 50°34' E 000°07'610.8
2018-Feb-15 20:59N 50°35' E 000°16'510.8
2018-Feb-15 20:29N 50°37' E 000°24'511.3
2018-Feb-15 20:00N 50°38' E 000°32'612.2
2018-Feb-15 19:30N 50°41' E 000°40'613.0
2018-Feb-15 19:00N 50°45' E 000°49'713.8
2018-Feb-15 18:30N 50°49' E 000°58'714.4
2018-Feb-15 18:00N 50°54' E 001°06'714.4
2018-Feb-15 17:30N 50°59' E 001°15'714.3
2018-Feb-15 17:00N 51°03' E 001°24'713.8
2018-Feb-15 16:30N 51°07' E 001°33'612.9
2018-Feb-15 16:01N 51°11' E 001°41'612.3
2018-Feb-15 15:30N 51°16' E 001°47'612.0
2018-Feb-15 15:01N 51°21' E 001°52'611.2
2018-Feb-15 14:30N 51°26' E 001°56'611.1
2018-Feb-15 14:00N 51°30' E 002°02'611.2
2018-Feb-15 13:30N 51°34' E 002°08'611.2
2018-Feb-15 13:00N 51°39' E 002°13'611.4
2018-Feb-15 12:29N 51°43' E 002°21'611.7
2018-Feb-15 11:56N 51°47' E 002°28'4712.5
2018-Feb-15 08:11N 52°03' E 003°39'313.5
2018-Feb-15 08:00N 52°03' E 003°43'612.5
2018-Feb-15 07:30N 52°03' E 003°53'4 9.0
2018-Feb-15 07:01N 52°01' E 003°60'611.6
2018-Feb-15 06:31N 51°58' E 004°08'611.8
2018-Feb-15 06:00N 51°54' E 004°16'3 6.2
2018-Feb-15 05:30N 51°54' E 004°20'0 0.0
2018-Feb-15 05:01N 51°54' E 004°20'0 0.0
2018-Feb-15 04:30N 51°54' E 004°20'0 0.0
2018-Feb-15 04:00N 51°54' E 004°20'0 0.0
2018-Feb-15 03:30N 51°54' E 004°20'0 0.0
2018-Feb-15 03:00N 51°54' E 004°20'0 0.0
2018-Feb-15 02:30N 51°54' E 004°20'0 0.0
2018-Feb-15 02:00N 51°54' E 004°20'0 0.0
2018-Feb-15 01:30N 51°54' E 004°20'0 0.0
2018-Feb-15 00:54N 51°54' E 004°20'0 0.0
2018-Feb-15 00:25N 51°54' E 004°20'0 0.0
2018-Feb-15 00:00N 51°54' E 004°20'0 0.0
2018-Feb-14 23:30N 51°54' E 004°20'0 0.0
2018-Feb-14 22:55N 51°54' E 004°20'0 0.0
2018-Feb-14 22:30N 51°54' E 004°20'0 0.0
2018-Feb-14 21:13N 51°54' E 004°20'0 0.0
2018-Feb-14 20:49N 51°54' E 004°20'0 0.0
2018-Feb-14 20:30N 51°54' E 004°20'0 0.0
2018-Feb-14 20:00N 51°54' E 004°20'0 0.0
2018-Feb-14 19:30N 51°54' E 004°20'0 0.0
2018-Feb-14 18:54N 51°54' E 004°20'0 0.0
2018-Feb-14 18:30N 51°54' E 004°20'0 0.0
2018-Feb-14 17:54N 51°54' E 004°20'0 0.0
2018-Feb-14 17:25N 51°54' E 004°20'0 0.0
2018-Feb-14 15:36N 51°54' E 004°20'0 0.0
2018-Feb-14 15:07N 51°54' E 004°20'0 0.0
2018-Feb-14 14:55N 51°54' E 004°20'0 0.0
2018-Feb-14 08:37N 51°54' E 004°20'0 0.0
2018-Feb-14 08:25N 51°54' E 004°20'0 0.0
2018-Feb-14 07:12N 51°54' E 004°20'0 0.0
2018-Feb-14 06:06N 51°54' E 004°20'0 0.0
2018-Feb-14 06:00N 51°54' E 004°20'0 0.0
2018-Feb-14 04:30N 51°54' E 004°20'0 0.0
2018-Feb-14 03:54N 51°54' E 004°20'0 0.0
2018-Feb-14 03:30N 51°54' E 004°20'0 0.0
2018-Feb-14 02:48N 51°54' E 004°20'0 0.0
2018-Feb-14 02:30N 51°54' E 004°20'0 0.0
2018-Feb-14 01:42N 51°54' E 004°20'0 0.0
2018-Feb-14 01:18N 51°54' E 004°20'0 0.0
2018-Feb-14 00:48N 51°54' E 004°20'0 0.0
2018-Feb-14 00:30N 51°54' E 004°20'0 0.0
2018-Feb-14 00:00N 51°54' E 004°20'0 0.0
2018-Feb-13 22:48N 51°54' E 004°20'0 0.0
2018-Feb-13 22:24N 51°54' E 004°20'0 0.0
2018-Feb-13 22:00N 51°54' E 004°20'0 0.0
2018-Feb-13 20:24N 51°54' E 004°20'0 0.0
2018-Feb-13 20:00N 51°54' E 004°20'0 0.0
2018-Feb-13 19:30N 51°54' E 004°20'0 0.0
2018-Feb-13 14:00N 51°54' E 004°20'0 0.0
2018-Feb-13 10:36N 51°54' E 004°20'0 0.0
2018-Feb-13 02:48N 51°54' E 004°20'0 0.0
2018-Feb-13 02:22N 51°54' E 004°20'0 0.0
2018-Feb-12 12:49N 51°54' E 004°20'0 0.0
2018-Feb-12 12:18N 51°54' E 004°20'0 0.0
2018-Feb-12 12:00N 51°54' E 004°20'0 0.0
2018-Feb-12 11:24N 51°54' E 004°20'0 0.0
2018-Feb-12 10:54N 51°54' E 004°20'0 0.0
2018-Feb-12 10:30N 51°54' E 004°20'0 0.0
2018-Feb-12 10:00N 51°54' E 004°20'0 0.0
2018-Feb-12 09:24N 51°54' E 004°20'0 0.0
2018-Feb-12 09:00N 51°54' E 004°20'0 0.0
2018-Feb-12 08:28N 51°54' E 004°20'0 0.0
2018-Feb-12 08:00N 51°54' E 004°20'0 0.0
2018-Feb-12 07:30N 51°54' E 004°20'0 0.0
2018-Feb-12 07:00N 51°54' E 004°20'0 0.0
2018-Feb-12 06:30N 51°54' E 004°20'0 0.0
2018-Feb-12 05:58N 51°54' E 004°20'0 0.0
2018-Feb-12 05:28N 51°54' E 004°20'0 0.0
2018-Feb-12 04:58N 51°54' E 004°20'0 0.0
2018-Feb-12 04:28N 51°54' E 004°20'0 0.0
2018-Feb-12 03:55N 51°54' E 004°20'0 0.0
2018-Feb-12 03:28N 51°54' E 004°20'0 0.0
2018-Feb-12 02:58N 51°54' E 004°20'0 0.0
2018-Feb-12 02:28N 51°54' E 004°20'0 0.0
2018-Feb-12 01:58N 51°54' E 004°20'0 0.0
2018-Feb-12 01:28N 51°54' E 004°20'0 0.0
2018-Feb-12 00:58N 51°54' E 004°20'0 0.0
2018-Feb-12 00:19N 51°54' E 004°20'0 0.0
2018-Feb-11 23:58N 51°54' E 004°20'0 0.0
2018-Feb-11 23:28N 51°54' E 004°20'0 0.0
2018-Feb-11 22:58N 51°54' E 004°20'0 0.0
2018-Feb-11 22:28N 51°54' E 004°20'0 0.0
2018-Feb-11 21:58N 51°54' E 004°20'0 0.0
2018-Feb-11 21:26N 51°54' E 004°20'0 0.1
2018-Feb-11 21:01N 51°54' E 004°21'1 2.7
2018-Feb-11 20:31N 51°53' E 004°18'1 2.0
2018-Feb-11 20:01N 51°53' E 004°17'0 0.1
2018-Feb-11 19:31N 51°53' E 004°17'0 0.0
2018-Feb-11 18:59N 51°53' E 004°17'0 0.0
2018-Feb-11 18:29N 51°53' E 004°17'0 0.0
2018-Feb-11 17:59N 51°53' E 004°17'0 0.0
2018-Feb-11 17:29N 51°53' E 004°17'0 0.0
2018-Feb-11 16:59N 51°53' E 004°17'0 0.0
2018-Feb-11 16:29N 51°53' E 004°17'0 0.0
2018-Feb-11 15:59N 51°53' E 004°17'0 0.0
2018-Feb-11 15:29N 51°53' E 004°17'0 0.0
2018-Feb-11 14:57N 51°53' E 004°17'0 0.0
2018-Feb-11 14:29N 51°53' E 004°17'0 0.0
2018-Feb-11 13:59N 51°53' E 004°17'0 0.0
2018-Feb-11 13:27N 51°53' E 004°17'0 0.0
2018-Feb-11 12:59N 51°53' E 004°17'0 0.0
2018-Feb-11 12:29N 51°53' E 004°17'0 0.0
2018-Feb-11 11:59N 51°53' E 004°17'0 0.0
2018-Feb-11 11:29N 51°53' E 004°17'0 0.0
2018-Feb-11 10:59N 51°53' E 004°17'0 0.0
2018-Feb-11 10:29N 51°53' E 004°17'0 0.0
2018-Feb-11 09:59N 51°53' E 004°17'0 0.0
2018-Feb-11 09:29N 51°53' E 004°17'0 0.0
2018-Feb-11 08:59N 51°53' E 004°17'0 0.0
2018-Feb-11 08:29N 51°53' E 004°17'0 0.0
2018-Feb-11 07:59N 51°53' E 004°17'0 0.0
2018-Feb-11 07:29N 51°53' E 004°17'0 0.0
2018-Feb-11 06:59N 51°53' E 004°17'0 0.0
2018-Feb-11 06:29N 51°53' E 004°17'0 0.0
2018-Feb-11 05:59N 51°53' E 004°17'0 0.0
2018-Feb-11 05:29N 51°53' E 004°17'0 0.0
2018-Feb-11 04:59N 51°53' E 004°17'0 0.0
2018-Feb-11 04:29N 51°53' E 004°17'0 0.0
2018-Feb-11 03:59N 51°53' E 004°17'0 0.0
2018-Feb-11 03:29N 51°53' E 004°17'0 0.0
2018-Feb-11 02:59N 51°53' E 004°17'0 0.0
2018-Feb-11 02:27N 51°53' E 004°17'0 0.0
2018-Feb-11 01:59N 51°53' E 004°17'0 0.0
2018-Feb-11 01:29N 51°53' E 004°17'0 0.0
2018-Feb-11 00:59N 51°53' E 004°17'0 0.0
2018-Feb-11 00:30N 51°53' E 004°17'0 0.0
2018-Feb-11 00:00N 51°53' E 004°17'0 0.0
2018-Feb-10 23:30N 51°53' E 004°17'0 0.0
2018-Feb-10 23:00N 51°53' E 004°17'0 0.0
2018-Feb-10 22:30N 51°53' E 004°17'0 0.0
2018-Feb-10 22:00N 51°53' E 004°17'0 0.0
2018-Feb-10 21:27N 51°53' E 004°17'0 0.0
2018-Feb-10 21:00N 51°53' E 004°17'0 0.0
2018-Feb-10 20:30N 51°53' E 004°17'0 0.0
2018-Feb-10 20:00N 51°53' E 004°17'0 0.0
2018-Feb-10 19:30N 51°53' E 004°17'0 0.0
2018-Feb-10 19:00N 51°53' E 004°17'0 0.0
2018-Feb-10 18:30N 51°53' E 004°17'0 0.0
2018-Feb-10 18:00N 51°53' E 004°17'0 0.0
2018-Feb-10 17:30N 51°53' E 004°17'0 0.0
2018-Feb-10 17:00N 51°53' E 004°17'0 0.0
2018-Feb-10 16:30N 51°53' E 004°17'0 0.0
2018-Feb-10 16:00N 51°53' E 004°17'0 0.0
2018-Feb-10 15:30N 51°53' E 004°17'0 0.0
2018-Feb-10 15:00N 51°53' E 004°17'0 0.0
2018-Feb-10 14:30N 51°53' E 004°17'0 0.0
2018-Feb-10 14:00N 51°53' E 004°17'0 0.0
2018-Feb-10 13:30N 51°53' E 004°17'0 0.0
2018-Feb-10 13:00N 51°53' E 004°17'0 0.0
2018-Feb-10 12:30N 51°53' E 004°17'0 0.0
2018-Feb-10 12:00N 51°53' E 004°17'0 0.0
2018-Feb-10 11:30N 51°53' E 004°17'0 0.0
2018-Feb-10 11:00N 51°53' E 004°17'0 0.0
2018-Feb-10 10:30N 51°53' E 004°17'0 0.0
2018-Feb-10 10:00N 51°53' E 004°17'0 0.0
2018-Feb-10 09:30N 51°53' E 004°17'0 0.0
2018-Feb-10 09:00N 51°53' E 004°17'0 0.0
2018-Feb-10 08:30N 51°53' E 004°17'0 0.0
2018-Feb-10 08:00N 51°53' E 004°17'0 0.0
2018-Feb-10 07:30N 51°53' E 004°17'0 0.0
2018-Feb-10 07:00N 51°53' E 004°17'0 0.0
2018-Feb-10 06:30N 51°53' E 004°17'0 0.0
2018-Feb-10 06:00N 51°53' E 004°17'0 0.0
2018-Feb-10 05:30N 51°53' E 004°17'0 0.0
2018-Feb-10 05:00N 51°53' E 004°17'0 0.0
2018-Feb-10 04:30N 51°53' E 004°17'0 0.0
2018-Feb-10 04:00N 51°53' E 004°17'0 0.0
2018-Feb-10 03:30N 51°53' E 004°17'0 0.0
2018-Feb-10 03:00N 51°53' E 004°17'0 0.0
2018-Feb-10 02:30N 51°53' E 004°17'0 0.0
2018-Feb-10 02:00N 51°53' E 004°17'0 0.0
2018-Feb-10 01:30N 51°53' E 004°17'0 0.0
2018-Feb-10 01:00N 51°53' E 004°17'0 0.0
2018-Feb-10 00:30N 51°53' E 004°17'0 0.0
2018-Feb-10 00:00N 51°53' E 004°17'0 0.0
2018-Feb-09 23:30N 51°53' E 004°17'0 0.0
2018-Feb-09 23:00N 51°53' E 004°17'0 0.2
2018-Feb-09 22:46N 51°53' E 004°17'  

Dump ship's entire track history